createdAt,value
2018-11-23T00:00:20.817Z,15.83
2018-11-23T00:02:49.932Z,10.00
2018-11-23T00:05:18.179Z,8.13
2018-11-23T00:07:46.246Z,7.10
2018-11-23T00:10:15.725Z,15.70
2018-11-23T00:12:43.659Z,11.90
2018-11-23T00:15:12.473Z,16.30
2018-11-23T00:17:40.771Z,9.40
2018-11-23T00:20:11.301Z,8.90
2018-11-23T00:22:39.470Z,8.00
2018-11-23T00:25:08.657Z,9.50
2018-11-23T00:27:36.731Z,8.73
2018-11-23T00:30:05.775Z,8.90
2018-11-23T00:32:33.548Z,8.57
2018-11-23T00:35:01.921Z,7.90
2018-11-23T00:37:30.007Z,8.87
2018-11-23T00:39:58.486Z,8.43
2018-11-23T00:42:27.070Z,8.17
2018-11-23T00:44:55.508Z,9.07
2018-11-23T00:47:24.062Z,8.53
2018-11-23T00:49:52.425Z,9.07
2018-11-23T00:52:21.015Z,9.07
2018-11-23T00:54:48.744Z,7.80
2018-11-23T00:57:17.377Z,8.20
2018-11-23T00:59:45.864Z,9.20
2018-11-23T01:02:13.667Z,8.33
2018-11-23T01:04:41.380Z,8.70
2018-11-23T01:07:09.485Z,9.20
2018-11-23T01:09:37.663Z,11.77
2018-11-23T01:12:05.433Z,10.50
2018-11-23T01:14:33.206Z,9.90
2018-11-23T01:17:01.313Z,9.53
2018-11-23T01:19:29.757Z,9.40
2018-11-23T01:21:58.351Z,10.50
2018-11-23T01:24:26.851Z,10.90
2018-11-23T01:26:55.312Z,10.10
2018-11-23T01:29:23.554Z,10.53
2018-11-23T01:31:51.786Z,9.97
2018-11-23T01:34:19.589Z,10.37
2018-11-23T01:36:47.333Z,10.10
2018-11-23T01:39:15.810Z,10.33
2018-11-23T01:41:44.307Z,11.23
2018-11-23T01:44:12.891Z,11.50
2018-11-23T01:46:41.349Z,12.37
2018-11-23T01:49:09.784Z,12.47
2018-11-23T01:51:38.330Z,12.87
2018-11-23T01:54:06.436Z,12.07
2018-11-23T01:56:34.531Z,13.30
2018-11-23T01:59:02.587Z,11.13
2018-11-23T02:01:30.360Z,11.77
2018-11-23T02:03:58.019Z,10.33
2018-11-23T02:06:26.242Z,11.23
2018-11-23T02:08:54.761Z,12.97
2018-11-23T02:11:23.286Z,12.67
2018-11-23T02:13:51.351Z,12.20
2018-11-23T02:16:19.936Z,13.33
2018-11-23T02:18:48.423Z,11.00
2018-11-23T02:21:16.516Z,12.07
2018-11-23T02:23:44.113Z,10.70
2018-11-23T02:26:12.418Z,10.20
2018-11-23T02:28:40.436Z,9.97
2018-11-23T02:31:09.153Z,10.53
2018-11-23T02:33:39.043Z,10.67
2018-11-23T02:36:08.146Z,10.47
2018-11-23T02:38:35.819Z,9.97
2018-11-23T02:41:03.988Z,10.57
2018-11-23T02:43:32.505Z,12.53
2018-11-23T02:46:00.232Z,11.77
2018-11-23T02:48:28.138Z,11.40
2018-11-23T02:50:56.220Z,11.77
2018-11-23T02:53:23.860Z,11.80
2018-11-23T02:55:52.275Z,12.20
2018-11-23T02:58:20.746Z,11.50
2018-11-23T03:00:47.997Z,12.23
2018-11-23T03:03:16.395Z,11.37
2018-11-23T03:05:44.565Z,11.73
2018-11-23T03:08:12.637Z,11.73
2018-11-23T03:10:41.027Z,10.40
2018-11-23T03:13:09.202Z,10.10
2018-11-23T03:15:37.392Z,10.40
2018-11-23T03:18:06.178Z,10.90
2018-11-23T03:20:34.655Z,10.93
2018-11-23T03:23:02.845Z,10.40
2018-11-23T03:25:50.022Z,9.67
2018-11-23T03:28:17.727Z,9.40
2018-11-23T03:30:46.099Z,9.20
2018-11-23T03:33:13.770Z,8.70
2018-11-23T03:35:42.258Z,10.03
2018-11-23T03:38:10.226Z,9.80
2018-11-23T03:40:38.312Z,10.53
2018-11-23T03:43:06.393Z,11.47
2018-11-23T03:45:34.473Z,10.77
2018-11-23T03:48:02.923Z,11.13
2018-11-23T03:50:30.614Z,12.80
2018-11-23T03:52:59.115Z,11.67
2018-11-23T03:55:26.903Z,13.70
2018-11-23T03:57:55.227Z,14.30
2018-11-23T04:00:23.927Z,15.07
2018-11-23T04:02:52.753Z,13.77
2018-11-23T04:05:20.860Z,13.27
2018-11-23T04:07:48.502Z,13.90
2018-11-23T04:10:17.417Z,13.03
2018-11-23T04:12:45.458Z,12.93
2018-11-23T04:15:13.837Z,12.10
2018-11-23T04:17:41.832Z,12.73
2018-11-23T04:20:11.852Z,11.67
2018-11-23T04:22:40.437Z,11.43
2018-11-23T04:25:08.001Z,11.27
2018-11-23T04:27:36.491Z,10.30
2018-11-23T04:30:05.262Z,12.90
2018-11-23T04:32:33.794Z,11.73
2018-11-23T04:35:01.444Z,11.87
2018-11-23T04:37:29.451Z,12.10
2018-11-23T04:39:57.973Z,12.97
2018-11-23T04:42:26.078Z,12.67
2018-11-23T04:44:54.179Z,13.23
2018-11-23T04:47:22.659Z,13.37
2018-11-23T04:49:50.729Z,13.00
2018-11-23T04:52:18.510Z,14.43
2018-11-23T04:54:46.578Z,14.20
2018-11-23T04:57:14.782Z,14.20
2018-11-23T04:59:42.425Z,14.27
2018-11-23T05:02:10.115Z,14.73
2018-11-23T05:04:38.171Z,14.70
2018-11-23T05:07:06.664Z,14.67
2018-11-23T05:09:35.135Z,16.83
2018-11-23T05:12:03.734Z,15.37
2018-11-23T05:14:31.796Z,15.13
2018-11-23T05:16:59.991Z,17.07
2018-11-23T05:19:32.807Z,15.80
2018-11-23T05:21:56.213Z,14.93
2018-11-23T05:24:24.450Z,13.90
2018-11-23T05:26:53.008Z,15.43
2018-11-23T05:29:20.811Z,15.43
2018-11-23T05:31:48.830Z,19.03
2018-11-23T05:34:16.934Z,18.40
2018-11-23T05:36:45.396Z,36.53
2018-11-23T05:39:13.238Z,25.97
2018-11-23T05:41:41.389Z,22.43
2018-11-23T05:44:09.552Z,22.90
2018-11-23T05:46:38.036Z,28.27
2018-11-23T05:49:06.203Z,24.33
2018-11-23T05:51:34.704Z,35.33
2018-11-23T05:54:02.688Z,27.90
2018-11-23T05:56:30.435Z,26.33
2018-11-23T05:58:58.944Z,29.00
2018-11-23T06:01:27.008Z,24.80
2018-11-23T06:03:55.504Z,24.47
2018-11-23T06:06:23.673Z,22.77
2018-11-23T06:08:52.068Z,25.23
2018-11-23T06:11:20.180Z,21.57
2018-11-23T06:13:48.635Z,21.23
2018-11-23T06:16:17.104Z,24.20
2018-11-23T06:18:45.217Z,24.60
2018-11-23T06:21:13.376Z,22.83
2018-11-23T06:23:41.552Z,21.70
2018-11-23T06:26:29.283Z,24.60
2018-11-23T06:28:56.938Z,20.73
2018-11-23T06:31:24.606Z,21.73
2018-11-23T06:33:53.061Z,21.97
2018-11-23T06:36:21.626Z,20.10
2018-11-23T06:38:49.973Z,20.30
2018-11-23T06:41:18.141Z,20.53
2018-11-23T06:43:46.128Z,20.40
2018-11-23T06:46:14.215Z,20.03
2018-11-23T06:48:42.288Z,20.03
2018-11-23T06:51:10.467Z,21.37
2018-11-23T06:53:38.644Z,21.40
2018-11-23T06:56:07.234Z,23.07
2018-11-23T06:58:35.309Z,21.67
2018-11-23T07:01:03.896Z,21.77
2018-11-23T07:03:32.486Z,20.93
2018-11-23T07:06:00.999Z,19.97
2018-11-23T07:08:29.196Z,19.97
2018-11-23T07:11:16.499Z,18.93
2018-11-23T07:13:44.263Z,21.53
2018-11-23T07:16:12.417Z,21.23
2018-11-23T07:18:40.938Z,20.90
2018-11-23T07:21:08.963Z,19.50
2018-11-23T07:23:37.052Z,19.57
2018-11-23T07:26:05.329Z,20.97
2018-11-23T07:28:33.503Z,19.23
2018-11-23T07:31:02.528Z,18.53
2018-11-23T07:33:29.426Z,18.83
2018-11-23T07:35:56.357Z,18.03
2018-11-23T07:38:25.018Z,18.90
2018-11-23T07:41:31.665Z,17.83
2018-11-23T07:44:00.135Z,16.80
2018-11-23T07:46:27.979Z,33.20
2018-11-23T07:48:56.562Z,25.83
2018-11-23T07:51:24.287Z,21.27
2018-11-23T07:53:52.761Z,17.63
2018-11-23T07:56:20.844Z,18.57
2018-11-23T07:59:08.320Z,17.23
2018-11-23T08:01:36.438Z,18.03
2018-11-23T08:04:04.540Z,16.00
2018-11-23T08:06:32.303Z,20.80
2018-11-23T08:09:00.888Z,21.47
2018-11-23T08:11:28.962Z,16.90
2018-11-23T08:13:57.061Z,16.23
2018-11-23T08:16:25.132Z,17.23
2018-11-23T08:18:53.202Z,19.50
2018-11-23T08:21:21.426Z,22.13
2018-11-23T08:23:49.566Z,18.93
2018-11-23T08:26:18.132Z,22.57
2018-11-23T08:28:48.697Z,21.63
2018-11-23T08:31:16.846Z,21.03
2018-11-23T08:33:45.340Z,20.33
2018-11-23T08:36:13.113Z,20.27
2018-11-23T08:38:41.193Z,26.13
2018-11-23T08:41:09.262Z,20.27
2018-11-23T08:43:37.051Z,19.67
2018-11-23T08:46:05.533Z,17.60
2018-11-23T08:48:34.020Z,18.30
2018-11-23T08:51:02.196Z,33.83
2018-11-23T08:53:34.253Z,22.60
2018-11-23T08:56:02.564Z,30.27
2018-11-23T08:58:30.646Z,22.30
2018-11-23T09:00:58.787Z,40.33
2018-11-23T09:03:26.877Z,24.73
2018-11-23T09:05:54.612Z,19.63
2018-11-23T09:08:23.354Z,18.20
2018-11-23T09:10:50.753Z,18.17
2018-11-23T09:13:18.474Z,15.87
2018-11-23T09:15:46.137Z,14.87
2018-11-23T09:18:13.796Z,14.80
2018-11-23T09:20:41.473Z,16.03
2018-11-23T09:23:09.655Z,15.53
2018-11-23T09:25:38.182Z,18.20
2018-11-23T09:28:06.318Z,18.67
2018-11-23T09:30:34.797Z,20.50
2018-11-23T09:33:02.459Z,19.00
2018-11-23T09:35:31.053Z,19.23
2018-11-23T09:37:59.522Z,18.70
2018-11-23T09:40:28.273Z,20.40
2018-11-23T09:42:56.646Z,20.87
2018-11-23T09:45:33.663Z,21.77
2018-11-23T09:48:03.413Z,21.97
2018-11-23T09:50:31.499Z,21.43
2018-11-23T09:53:01.046Z,21.63
2018-11-23T09:55:30.108Z,21.47
2018-11-23T09:57:58.613Z,20.83
2018-11-23T10:00:28.568Z,20.27
2018-11-23T10:02:57.859Z,19.67
2018-11-23T10:05:26.434Z,18.00
2018-11-23T10:07:58.818Z,17.57
2018-11-23T10:10:27.207Z,17.23
2018-11-23T10:12:55.680Z,15.17
2018-11-23T10:15:24.441Z,14.77
2018-11-23T10:17:52.892Z,14.90
2018-11-23T10:20:24.524Z,14.20
2018-11-23T10:22:52.882Z,13.93
2018-11-23T10:25:22.628Z,14.27
2018-11-23T10:27:51.190Z,13.97
2018-11-23T10:30:38.722Z,14.40
2018-11-23T10:33:07.589Z,13.53
2018-11-23T10:35:35.783Z,14.17
2018-11-23T10:38:04.469Z,13.93
2018-11-23T10:40:34.600Z,14.53
2018-11-23T10:43:02.677Z,13.70
2018-11-23T10:45:31.982Z,15.13
2018-11-23T10:48:00.876Z,13.87
2018-11-23T10:50:30.363Z,13.23
2018-11-23T10:52:58.972Z,13.50
2018-11-23T10:55:30.740Z,13.97
2018-11-23T10:57:58.971Z,15.37
2018-11-23T11:00:45.702Z,13.80
2018-11-23T11:03:32.885Z,14.97
2018-11-23T11:06:21.737Z,15.87
2018-11-23T11:08:49.705Z,23.47
2018-11-23T11:11:17.392Z,16.43
2018-11-23T11:13:45.956Z,15.27
2018-11-23T11:16:14.622Z,15.83
2018-11-23T11:18:42.778Z,15.90
2018-11-23T11:21:10.829Z,16.40
2018-11-23T11:23:39.446Z,17.23
2018-11-23T11:26:07.963Z,15.40
2018-11-23T11:28:36.639Z,15.90
2018-11-23T11:31:05.015Z,14.83
2018-11-23T11:33:33.193Z,14.50
2018-11-23T11:36:01.259Z,14.57
2018-11-23T11:38:29.141Z,14.10
2018-11-23T11:40:57.236Z,14.73
2018-11-23T11:43:25.427Z,14.30
2018-11-23T11:45:53.071Z,14.27
2018-11-23T11:48:20.836Z,12.83
2018-11-23T11:50:49.002Z,14.53
2018-11-23T11:53:17.199Z,13.43
2018-11-23T11:55:45.793Z,11.77
2018-11-23T11:58:13.462Z,10.73
2018-11-23T12:00:41.119Z,11.10
2018-11-23T12:03:09.601Z,12.13
2018-11-23T12:05:37.269Z,10.53
2018-11-23T12:08:05.469Z,10.23
2018-11-23T12:10:33.558Z,10.93
2018-11-23T12:13:01.776Z,10.80
2018-11-23T12:15:29.889Z,12.70
2018-11-23T12:17:57.911Z,11.90
2018-11-23T12:20:25.838Z,11.37
2018-11-23T12:22:54.333Z,11.50
2018-11-23T12:25:22.978Z,12.07
2018-11-23T12:27:50.951Z,12.20
2018-11-23T12:30:20.463Z,13.53
2018-11-23T12:32:49.798Z,12.67
2018-11-23T12:35:18.802Z,11.57
2018-11-23T12:37:47.036Z,10.93
2018-11-23T12:40:16.185Z,11.40
2018-11-23T12:42:44.742Z,10.73
2018-11-23T12:45:13.935Z,12.73
2018-11-23T12:47:42.462Z,12.53
2018-11-23T12:50:29.980Z,11.30
2018-11-23T12:53:05.809Z,12.23
2018-11-23T12:55:26.059Z,12.30
2018-11-23T12:57:54.469Z,11.53
2018-11-23T13:00:42.097Z,12.00
2018-11-23T13:03:10.212Z,11.53
2018-11-23T13:05:38.258Z,15.43
2018-11-23T13:08:06.639Z,12.60
2018-11-23T13:10:34.875Z,11.73
2018-11-23T13:13:03.506Z,12.13
2018-11-23T13:15:31.953Z,13.87
2018-11-23T13:18:00.665Z,13.80
2018-11-23T13:20:28.405Z,13.17
2018-11-23T13:22:56.469Z,14.43
2018-11-23T13:25:28.670Z,15.10
2018-11-23T13:27:57.239Z,13.53
2018-11-23T13:30:26.962Z,13.03
2018-11-23T13:32:55.351Z,21.87
2018-11-23T13:35:23.108Z,18.57
2018-11-23T13:37:51.316Z,16.00
2018-11-23T13:40:20.973Z,16.20
2018-11-23T13:42:48.754Z,13.83
2018-11-23T13:45:17.518Z,12.27
2018-11-23T13:47:45.760Z,11.93
2018-11-23T13:50:15.264Z,11.83
2018-11-23T13:52:44.937Z,13.77
2018-11-23T13:55:14.063Z,14.63
2018-11-23T13:57:42.574Z,13.87
2018-11-23T14:00:15.838Z,12.10
2018-11-23T14:02:44.786Z,15.50
2018-11-23T14:05:14.712Z,21.23
2018-11-23T14:07:44.050Z,28.43
2018-11-23T14:10:13.461Z,20.43
2018-11-23T14:12:41.561Z,15.13
2018-11-23T14:15:13.160Z,18.63
2018-11-23T14:17:41.505Z,9.30
2018-11-23T14:20:11.280Z,6.00
2018-11-23T14:22:39.171Z,6.70
2018-11-23T14:25:07.592Z,5.53
2018-11-23T14:27:35.343Z,6.03
2018-11-23T14:30:04.045Z,4.77
2018-11-23T14:32:32.234Z,5.83
2018-11-23T14:35:00.454Z,6.27
2018-11-23T14:37:28.509Z,5.60
2018-11-23T14:39:56.668Z,5.47
2018-11-23T14:42:23.649Z,5.57
2018-11-23T14:44:51.920Z,5.40
2018-11-23T14:47:20.059Z,5.87
2018-11-23T14:49:48.586Z,5.67
2018-11-23T14:52:16.449Z,7.70
2018-11-23T14:54:44.259Z,9.50
2018-11-23T14:57:12.119Z,11.23
2018-11-23T14:59:40.511Z,10.30
2018-11-23T15:02:08.244Z,10.17
2018-11-23T15:04:36.431Z,13.00
2018-11-23T15:07:05.104Z,15.30
2018-11-23T15:09:33.284Z,20.50
2018-11-23T15:12:00.631Z,18.30
2018-11-23T15:14:29.134Z,14.23
2018-11-23T15:16:56.411Z,10.47
2018-11-23T15:19:24.642Z,11.83
2018-11-23T15:21:53.164Z,9.50
2018-11-23T15:24:21.329Z,12.03
2018-11-23T15:26:48.729Z,12.90
2018-11-23T15:29:16.456Z,11.20
2018-11-23T15:31:44.769Z,21.57
2018-11-23T15:34:13.875Z,25.20
2018-11-23T15:36:41.780Z,27.83
2018-11-23T15:39:11.030Z,11.30
2018-11-23T15:41:39.755Z,19.87
2018-11-23T15:44:07.777Z,12.93
2018-11-23T15:46:35.459Z,11.80
2018-11-23T15:49:03.584Z,11.43
2018-11-23T15:51:31.724Z,19.23
2018-11-23T15:53:59.520Z,10.07
2018-11-23T15:56:27.361Z,22.77
2018-11-23T15:58:55.449Z,11.27
2018-11-23T16:01:23.934Z,11.43
2018-11-23T16:03:52.230Z,10.83
2018-11-23T16:06:20.368Z,14.70
2018-11-23T16:08:48.854Z,20.32
2018-11-23T16:11:17.368Z,12.03
2018-11-23T16:13:45.848Z,15.27
2018-11-23T16:16:13.509Z,10.87
2018-11-23T16:18:41.584Z,15.90
2018-11-23T16:21:09.688Z,15.60
2018-11-23T16:23:38.178Z,19.50
2018-11-23T16:26:06.248Z,20.87
2018-11-23T16:28:34.728Z,46.13
2018-11-23T16:31:02.894Z,25.93
2018-11-23T16:33:30.720Z,15.20
2018-11-23T16:35:59.778Z,15.97
2018-11-23T16:38:27.435Z,11.90
2018-11-23T16:40:56.283Z,10.83
2018-11-23T16:43:24.362Z,13.50
2018-11-23T16:45:52.924Z,15.50
2018-11-23T16:48:21.983Z,18.17
2018-11-23T16:50:50.814Z,15.50
2018-11-23T16:53:19.398Z,10.00
2018-11-23T16:55:47.980Z,11.83
2018-11-23T16:58:16.576Z,14.13
2018-11-23T17:00:46.090Z,13.27
2018-11-23T17:03:15.699Z,11.47
2018-11-23T17:05:45.705Z,8.73
2018-11-23T17:08:14.099Z,8.53
2018-11-23T17:10:42.284Z,14.53
2018-11-23T17:13:09.979Z,9.40
2018-11-23T17:15:37.801Z,13.33
2018-11-23T17:18:06.206Z,9.93
2018-11-23T17:20:34.794Z,9.40
2018-11-23T17:23:04.223Z,9.80
2018-11-23T17:25:33.026Z,10.37
2018-11-23T17:28:02.307Z,9.77
2018-11-23T17:30:31.193Z,9.93
2018-11-23T17:32:59.659Z,10.50
2018-11-23T17:35:28.255Z,9.90
2018-11-23T17:37:56.266Z,8.63
2018-11-23T17:40:25.619Z,9.07
2018-11-23T17:42:53.215Z,7.97
2018-11-23T17:45:40.754Z,8.93
2018-11-23T17:48:09.085Z,9.33
2018-11-23T17:50:38.105Z,7.40
2018-11-23T17:53:06.201Z,7.73
2018-11-23T17:55:34.775Z,7.50
2018-11-23T17:58:02.959Z,6.73
2018-11-23T18:00:38.935Z,7.07
2018-11-23T18:03:02.245Z,6.87
2018-11-23T18:05:31.101Z,7.10
2018-11-23T18:07:59.952Z,6.70
2018-11-23T18:10:29.322Z,6.77
2018-11-23T18:12:58.544Z,6.73
2018-11-23T18:15:45.774Z,6.97
2018-11-23T18:18:33.329Z,7.30
2018-11-23T18:21:01.099Z,6.60
2018-11-23T18:23:29.604Z,6.80
2018-11-23T18:25:58.235Z,6.90
2018-11-23T18:28:26.257Z,7.17
2018-11-23T18:30:53.911Z,7.37
2018-11-23T18:33:22.001Z,6.90
2018-11-23T18:35:50.210Z,6.70
2018-11-23T18:38:18.680Z,7.10
2018-11-23T18:40:47.225Z,6.43
2018-11-23T18:43:15.339Z,7.20
2018-11-23T18:45:43.014Z,7.13
2018-11-23T18:48:10.892Z,7.33
2018-11-23T18:50:39.139Z,7.70
2018-11-23T18:53:07.240Z,7.63
2018-11-23T18:55:35.716Z,7.80
2018-11-23T18:58:04.217Z,8.53
2018-11-23T19:00:32.679Z,8.03
2018-11-23T19:03:00.462Z,7.43
2018-11-23T19:05:28.760Z,8.13
2018-11-23T19:07:56.690Z,8.83
2018-11-23T19:10:25.196Z,9.40
2018-11-23T19:12:52.872Z,9.77
2018-11-23T19:15:25.651Z,8.77
2018-11-23T19:17:49.480Z,11.77
2018-11-23T19:20:18.962Z,8.47
2018-11-23T19:22:48.241Z,12.50
2018-11-23T19:25:15.923Z,10.27
2018-11-23T19:27:44.452Z,16.20
2018-11-23T19:30:15.799Z,23.73
2018-11-23T19:32:44.174Z,9.00
2018-11-23T19:35:12.849Z,11.47
2018-11-23T19:40:08.411Z,9.80
2018-11-23T19:42:35.887Z,9.50
2018-11-23T19:45:03.448Z,9.23
2018-11-23T19:47:30.946Z,10.73
2018-11-23T19:49:58.395Z,13.77
2018-11-23T19:52:25.899Z,16.10
2018-11-23T19:54:53.390Z,13.33
2018-11-23T19:57:20.893Z,9.27
2018-11-23T19:59:48.376Z,12.87
2018-11-23T20:02:16.078Z,11.50
2018-11-23T20:04:43.559Z,10.53
2018-11-23T20:07:11.069Z,12.13
2018-11-23T20:09:40.024Z,13.17
2018-11-23T20:12:06.069Z,14.67
2018-11-23T20:14:33.958Z,17.47
2018-11-23T20:17:01.712Z,19.47
2018-11-23T20:19:29.465Z,17.70
2018-11-23T20:21:56.949Z,17.83
2018-11-23T20:24:25.170Z,12.47
2018-11-23T20:26:52.940Z,10.80
2018-11-23T20:29:20.972Z,10.63
2018-11-23T20:31:48.675Z,9.80
2018-11-23T20:34:26.046Z,12.20
2018-11-23T20:36:53.869Z,16.60
2018-11-23T20:39:21.919Z,15.37
2018-11-23T20:41:49.999Z,12.87
2018-11-23T20:44:17.680Z,10.03
2018-11-23T20:46:51.944Z,9.87
2018-11-23T20:49:19.620Z,11.07
2018-11-23T20:51:47.582Z,9.63
2018-11-23T20:54:15.313Z,11.03
2018-11-23T20:56:42.845Z,8.60
2018-11-23T20:59:10.670Z,8.33
2018-11-23T21:01:38.721Z,9.53
2018-11-23T21:04:06.639Z,9.00
2018-11-23T21:06:34.919Z,9.33
2018-11-23T21:09:02.715Z,10.60
2018-11-23T21:11:30.513Z,10.73
2018-11-23T21:13:57.975Z,14.57
2018-11-23T21:16:25.634Z,12.00
2018-11-23T21:18:53.039Z,11.57
2018-11-23T21:21:20.424Z,11.70
2018-11-23T21:23:48.193Z,10.27
2018-11-23T21:26:15.959Z,10.17
2018-11-23T21:28:43.424Z,9.50
2018-11-23T21:31:10.858Z,10.40
2018-11-23T21:33:38.353Z,10.03
2018-11-23T21:36:05.910Z,10.07
2018-11-23T21:38:33.369Z,10.33
2018-11-23T21:41:00.953Z,12.27
2018-11-23T21:43:28.395Z,13.87
2018-11-23T21:45:55.908Z,10.50
2018-11-23T21:48:23.548Z,10.27
2018-11-23T21:50:50.985Z,10.90
2018-11-23T21:53:18.421Z,11.67
2018-11-23T21:55:45.829Z,11.27
2018-11-23T21:58:13.298Z,11.33
2018-11-23T22:00:40.790Z,10.87
2018-11-23T22:03:08.278Z,10.93
2018-11-23T22:05:35.728Z,10.80
2018-11-23T22:08:03.185Z,11.50
2018-11-23T22:10:30.662Z,13.90
2018-11-23T22:12:58.170Z,10.40
2018-11-23T22:15:25.628Z,10.87
2018-11-23T22:17:54.337Z,10.83
2018-11-23T22:20:22.301Z,10.50
2018-11-23T22:22:49.707Z,10.40
2018-11-23T22:25:18.356Z,10.40
2018-11-23T22:27:45.880Z,9.63
2018-11-23T22:30:21.526Z,11.27
2018-11-23T22:32:49.014Z,14.67
2018-11-23T22:35:16.428Z,22.73
2018-11-23T22:37:43.912Z,11.30
2018-11-23T22:40:13.513Z,11.40
2018-11-23T22:42:42.124Z,10.77
2018-11-23T22:45:10.908Z,9.90
2018-11-23T22:47:38.329Z,10.50
2018-11-23T22:50:15.915Z,10.40
2018-11-23T22:52:43.374Z,12.23
2018-11-23T22:55:11.851Z,10.50
2018-11-23T22:57:39.338Z,9.80
2018-11-23T23:00:30.359Z,9.77
2018-11-23T23:02:57.864Z,9.17
2018-11-23T23:05:25.302Z,10.43
2018-11-23T23:07:52.713Z,10.27
2018-11-23T23:10:20.155Z,10.27
2018-11-23T23:12:47.734Z,10.47
2018-11-23T23:15:15.334Z,11.37
2018-11-23T23:17:42.816Z,10.50
2018-11-23T23:20:15.280Z,11.10
2018-11-23T23:22:42.740Z,10.73
2018-11-23T23:25:11.045Z,10.23
2018-11-23T23:27:38.519Z,10.30
2018-11-23T23:30:09.049Z,10.90
2018-11-23T23:32:36.836Z,10.33
2018-11-23T23:35:05.416Z,11.33
2018-11-23T23:37:32.833Z,11.47
2018-11-23T23:40:00.235Z,11.30
2018-11-23T23:42:27.673Z,11.60
2018-11-23T23:44:55.083Z,11.83
2018-11-23T23:47:22.506Z,18.37
2018-11-23T23:49:49.960Z,14.73
2018-11-23T23:52:17.343Z,12.03
2018-11-23T23:54:44.765Z,11.27
2018-11-23T23:57:12.200Z,12.83
2018-11-23T23:59:39.645Z,11.27
